sensor_id;sensor_type;location;lat;lon;timestamp;P1;P2;P0
61804;PMS7003;47725;47.912;7.356;2022-08-19T00:00:13;6.82;5.96;
61804;PMS7003;47725;47.912;7.356;2022-08-19T00:04:13;6.82;5.96;
61804;PMS7003;47725;47.912;7.356;2022-08-19T00:08:12;4.30;4.30;
61804;PMS7003;47725;47.912;7.356;2022-08-19T00:12:12;4.30;4.30;
61804;PMS7003;47725;47.912;7.356;2022-08-19T00:16:12;3.46;2.59;
61804;PMS7003;47725;47.912;7.356;2022-08-19T00:20:18;3.46;2.59;
61804;PMS7003;47725;47.912;7.356;2022-08-19T00:24:14;3.46;2.59;
61804;PMS7003;47725;47.912;7.356;2022-08-19T00:28:12;3.43;1.72;
61804;PMS7003;47725;47.912;7.356;2022-08-19T00:32:21;3.43;1.72;
61804;PMS7003;47725;47.912;7.356;2022-08-19T00:36:12;4.32;3.46;
61804;PMS7003;47725;47.912;7.356;2022-08-19T00:40:16;4.32;3.46;
61804;PMS7003;47725;47.912;7.356;2022-08-19T00:44:14;4.32;3.46;
61804;PMS7003;47725;47.912;7.356;2022-08-19T00:48:12;3.46;2.60;
61804;PMS7003;47725;47.912;7.356;2022-08-19T00:52:14;3.46;2.60;
61804;PMS7003;47725;47.912;7.356;2022-08-19T00:56:12;2.60;2.60;
61804;PMS7003;47725;47.912;7.356;2022-08-19T01:00:14;2.60;2.60;
61804;PMS7003;47725;47.912;7.356;2022-08-19T01:04:13;2.60;2.60;
61804;PMS7003;47725;47.912;7.356;2022-08-19T01:08:13;3.46;2.59;
61804;PMS7003;47725;47.912;7.356;2022-08-19T01:12:12;3.46;2.59;
61804;PMS7003;47725;47.912;7.356;2022-08-19T01:16:12;1.73;1.73;
61804;PMS7003;47725;47.912;7.356;2022-08-19T01:20:13;1.73;1.73;
61804;PMS7003;47725;47.912;7.356;2022-08-19T01:24:12;1.73;1.73;
61804;PMS7003;47725;47.912;7.356;2022-08-19T01:28:23;4.32;1.73;
61804;PMS7003;47725;47.912;7.356;2022-08-19T01:32:13;4.32;1.73;
61804;PMS7003;47725;47.912;7.356;2022-08-19T01:36:14;2.59;2.59;
61804;PMS7003;47725;47.912;7.356;2022-08-19T01:40:12;2.59;2.59;
61804;PMS7003;47725;47.912;7.356;2022-08-19T01:44:12;2.59;2.59;
61804;PMS7003;47725;47.912;7.356;2022-08-19T01:48:12;3.39;2.54;
61804;PMS7003;47725;47.912;7.356;2022-08-19T01:52:12;3.39;2.54;
61804;PMS7003;47725;47.912;7.356;2022-08-19T01:56:12;1.69;1.69;
61804;PMS7003;47725;47.912;7.356;2022-08-19T02:00:14;1.69;1.69;
61804;PMS7003;47725;47.912;7.356;2022-08-19T02:04:12;1.69;1.69;
61804;PMS7003;47725;47.912;7.356;2022-08-19T02:08:12;3.39;2.55;
61804;PMS7003;47725;47.912;7.356;2022-08-19T02:12:12;3.39;2.55;
61804;PMS7003;47725;47.912;7.356;2022-08-19T02:16:12;3.40;1.70;
61804;PMS7003;47725;47.912;7.356;2022-08-19T02:20:12;3.40;1.70;
61804;PMS7003;47725;47.912;7.356;2022-08-19T02:24:12;3.40;1.70;
61804;PMS7003;47725;47.912;7.356;2022-08-19T02:28:12;3.38;2.54;
61804;PMS7003;47725;47.912;7.356;2022-08-19T02:32:12;3.38;2.54;
61804;PMS7003;47725;47.912;7.356;2022-08-19T02:36:13;5.06;2.53;
61804;PMS7003;47725;47.912;7.356;2022-08-19T02:40:12;5.06;2.53;
61804;PMS7003;47725;47.912;7.356;2022-08-19T02:44:12;5.06;2.53;
61804;PMS7003;47725;47.912;7.356;2022-08-19T02:48:12;3.37;0.84;
61804;PMS7003;47725;47.912;7.356;2022-08-19T02:52:12;3.37;0.84;
61804;PMS7003;47725;47.912;7.356;2022-08-19T02:56:12;2.53;2.53;
61804;PMS7003;47725;47.912;7.356;2022-08-19T03:00:13;2.53;2.53;
61804;PMS7003;47725;47.912;7.356;2022-08-19T03:04:13;2.53;2.53;
61804;PMS7003;47725;47.912;7.356;2022-08-19T03:08:12;5.07;4.22;
61804;PMS7003;47725;47.912;7.356;2022-08-19T03:12:12;5.07;4.22;
61804;PMS7003;47725;47.912;7.356;2022-08-19T03:16:12;2.53;2.53;
61804;PMS7003;47725;47.912;7.356;2022-08-19T03:20:12;2.53;2.53;
61804;PMS7003;47725;47.912;7.356;2022-08-19T03:24:13;2.53;2.53;
61804;PMS7003;47725;47.912;7.356;2022-08-19T03:28:13;2.54;2.54;
61804;PMS7003;47725;47.912;7.356;2022-08-19T03:32:12;2.54;2.54;
61804;PMS7003;47725;47.912;7.356;2022-08-19T03:36:14;3.38;2.54;
61804;PMS7003;47725;47.912;7.356;2022-08-19T03:40:12;3.38;2.54;
61804;PMS7003;47725;47.912;7.356;2022-08-19T03:44:13;3.38;2.54;
61804;PMS7003;47725;47.912;7.356;2022-08-19T03:48:12;5.06;3.38;
61804;PMS7003;47725;47.912;7.356;2022-08-19T03:52:12;5.06;3.38;
61804;PMS7003;47725;47.912;7.356;2022-08-19T03:56:12;4.22;2.53;
61804;PMS7003;47725;47.912;7.356;2022-08-19T04:00:12;4.22;2.53;
61804;PMS7003;47725;47.912;7.356;2022-08-19T04:04:12;4.22;2.53;
61804;PMS7003;47725;47.912;7.356;2022-08-19T04:08:13;3.37;2.53;
61804;PMS7003;47725;47.912;7.356;2022-08-19T04:12:12;3.37;2.53;
61804;PMS7003;47725;47.912;7.356;2022-08-19T04:16:12;3.37;3.37;
61804;PMS7003;47725;47.912;7.356;2022-08-19T04:20:12;3.37;3.37;
61804;PMS7003;47725;47.912;7.356;2022-08-19T04:24:12;3.37;3.37;
61804;PMS7003;47725;47.912;7.356;2022-08-19T04:28:12;3.38;3.38;
61804;PMS7003;47725;47.912;7.356;2022-08-19T04:32:12;3.38;3.38;
61804;PMS7003;47725;47.912;7.356;2022-08-19T04:36:18;1.69;1.69;
61804;PMS7003;47725;47.912;7.356;2022-08-19T04:40:12;1.69;1.69;
61804;PMS7003;47725;47.912;7.356;2022-08-19T04:44:12;1.69;1.69;
61804;PMS7003;47725;47.912;7.356;2022-08-19T04:48:12;3.37;1.69;
61804;PMS7003;47725;47.912;7.356;2022-08-19T04:52:12;3.37;1.69;
61804;PMS7003;47725;47.912;7.356;2022-08-19T04:56:14;1.69;1.69;
61804;PMS7003;47725;47.912;7.356;2022-08-19T05:00:12;1.69;1.69;
61804;PMS7003;47725;47.912;7.356;2022-08-19T05:04:12;1.69;1.69;
61804;PMS7003;47725;47.912;7.356;2022-08-19T05:08:12;5.07;3.38;
61804;PMS7003;47725;47.912;7.356;2022-08-19T05:12:12;5.07;3.38;
61804;PMS7003;47725;47.912;7.356;2022-08-19T05:16:12;3.38;3.38;
61804;PMS7003;47725;47.912;7.356;2022-08-19T05:20:12;3.38;3.38;
61804;PMS7003;47725;47.912;7.356;2022-08-19T05:24:12;3.38;3.38;
61804;PMS7003;47725;47.912;7.356;2022-08-19T05:28:12;5.06;4.22;
61804;PMS7003;47725;47.912;7.356;2022-08-19T05:32:12;5.06;4.22;
61804;PMS7003;47725;47.912;7.356;2022-08-19T05:36:12;6.74;3.37;
61804;PMS7003;47725;47.912;7.356;2022-08-19T05:40:12;6.74;3.37;
61804;PMS7003;47725;47.912;7.356;2022-08-19T05:44:12;6.74;3.37;
61804;PMS7003;47725;47.912;7.356;2022-08-19T05:48:12;5.06;5.06;
61804;PMS7003;47725;47.912;7.356;2022-08-19T05:52:13;5.06;5.06;
61804;PMS7003;47725;47.912;7.356;2022-08-19T05:56:13;5.90;5.06;
61804;PMS7003;47725;47.912;7.356;2022-08-19T06:00:12;5.90;5.06;
61804;PMS7003;47725;47.912;7.356;2022-08-19T06:04:12;5.90;5.06;
61804;PMS7003;47725;47.912;7.356;2022-08-19T06:08:12;7.61;6.76;
61804;PMS7003;47725;47.912;7.356;2022-08-19T06:12:12;7.61;6.76;
61804;PMS7003;47725;47.912;7.356;2022-08-19T06:16:12;9.29;5.91;
61804;PMS7003;47725;47.912;7.356;2022-08-19T06:20:15;9.29;5.91;
61804;PMS7003;47725;47.912;7.356;2022-08-19T06:24:13;9.29;5.91;
61804;PMS7003;47725;47.912;7.356;2022-08-19T06:28:15;6.75;5.91;
61804;PMS7003;47725;47.912;7.356;2022-08-19T06:32:14;6.75;5.91;
61804;PMS7003;47725;47.912;7.356;2022-08-19T06:36:22;8.45;8.45;
61804;PMS7003;47725;47.912;7.356;2022-08-19T06:40:12;8.45;8.45;
61804;PMS7003;47725;47.912;7.356;2022-08-19T06:44:12;8.45;8.45;
61804;PMS7003;47725;47.912;7.356;2022-08-19T06:48:15;4.25;4.25;
61804;PMS7003;47725;47.912;7.356;2022-08-19T06:52:12;4.25;4.25;
61804;PMS7003;47725;47.912;7.356;2022-08-19T06:56:15;7.67;5.11;
61804;PMS7003;47725;47.912;7.356;2022-08-19T07:00:12;7.67;5.11;
61804;PMS7003;47725;47.912;7.356;2022-08-19T07:04:13;7.67;5.11;
61804;PMS7003;47725;47.912;7.356;2022-08-19T07:08:12;4.26;3.41;
61804;PMS7003;47725;47.912;7.356;2022-08-19T07:12:13;4.26;3.41;
61804;PMS7003;47725;47.912;7.356;2022-08-19T07:16:13;5.12;4.26;
61804;PMS7003;47725;47.912;7.356;2022-08-19T07:20:12;5.12;4.26;
61804;PMS7003;47725;47.912;7.356;2022-08-19T07:24:12;5.12;4.26;
61804;PMS7003;47725;47.912;7.356;2022-08-19T07:28:12;6.85;5.99;
61804;PMS7003;47725;47.912;7.356;2022-08-19T07:32:12;6.85;5.99;
61804;PMS7003;47725;47.912;7.356;2022-08-19T07:36:12;5.97;5.12;
61804;PMS7003;47725;47.912;7.356;2022-08-19T07:40:12;5.97;5.12;
61804;PMS7003;47725;47.912;7.356;2022-08-19T07:44:12;5.97;5.12;
61804;PMS7003;47725;47.912;7.356;2022-08-19T07:48:12;6.83;6.83;
61804;PMS7003;47725;47.912;7.356;2022-08-19T07:52:12;6.83;6.83;
61804;PMS7003;47725;47.912;7.356;2022-08-19T07:56:12;11.05;7.65;
61804;PMS7003;47725;47.912;7.356;2022-08-19T08:00:12;11.05;7.65;
61804;PMS7003;47725;47.912;7.356;2022-08-19T08:04:12;11.05;7.65;
61804;PMS7003;47725;47.912;7.356;2022-08-19T08:08:15;9.41;7.70;
61804;PMS7003;47725;47.912;7.356;2022-08-19T08:12:16;9.41;7.70;
61804;PMS7003;47725;47.912;7.356;2022-08-19T08:16:12;8.58;6.86;
61804;PMS7003;47725;47.912;7.356;2022-08-19T08:20:13;8.58;6.86;
61804;PMS7003;47725;47.912;7.356;2022-08-19T08:24:12;8.58;6.86;
61804;PMS7003;47725;47.912;7.356;2022-08-19T08:28:12;9.47;9.47;
61804;PMS7003;47725;47.912;7.356;2022-08-19T08:32:12;9.47;9.47;
61804;PMS7003;47725;47.912;7.356;2022-08-19T08:36:12;15.53;12.94;
61804;PMS7003;47725;47.912;7.356;2022-08-19T08:40:27;15.53;12.94;
61804;PMS7003;47725;47.912;7.356;2022-08-19T08:44:17;15.53;12.94;
61804;PMS7003;47725;47.912;7.356;2022-08-19T08:48:19;10.37;10.37;
61804;PMS7003;47725;47.912;7.356;2022-08-19T08:56:12;12.12;10.39;
61804;PMS7003;47725;47.912;7.356;2022-08-19T09:00:15;12.12;10.39;
61804;PMS7003;47725;47.912;7.356;2022-08-19T09:04:12;12.12;10.39;
61804;PMS7003;47725;47.912;7.356;2022-08-19T09:08:13;13.96;9.60;
61804;PMS7003;47725;47.912;7.356;2022-08-19T09:12:27;13.96;9.60;
61804;PMS7003;47725;47.912;7.356;2022-08-19T09:16:18;13.17;11.41;
61804;PMS7003;47725;47.912;7.356;2022-08-19T09:20:20;13.17;11.41;
61804;PMS7003;47725;47.912;7.356;2022-08-19T09:24:12;13.17;11.41;
61804;PMS7003;47725;47.912;7.356;2022-08-19T09:28:12;13.31;12.42;
61804;PMS7003;47725;47.912;7.356;2022-08-19T09:32:12;13.31;12.42;
61804;PMS7003;47725;47.912;7.356;2022-08-19T09:36:13;10.62;7.97;
61804;PMS7003;47725;47.912;7.356;2022-08-19T09:40:12;10.62;7.97;
61804;PMS7003;47725;47.912;7.356;2022-08-19T09:44:12;10.62;7.97;
61804;PMS7003;47725;47.912;7.356;2022-08-19T09:48:12;15.27;10.78;
61804;PMS7003;47725;47.912;7.356;2022-08-19T09:52:12;15.27;10.78;
61804;PMS7003;47725;47.912;7.356;2022-08-19T09:56:12;15.26;13.47;
61804;PMS7003;47725;47.912;7.356;2022-08-19T10:00:12;15.26;13.47;
61804;PMS7003;47725;47.912;7.356;2022-08-19T10:04:12;15.26;13.47;
61804;PMS7003;47725;47.912;7.356;2022-08-19T10:08:12;17.19;9.95;
61804;PMS7003;47725;47.912;7.356;2022-08-19T10:12:12;17.19;9.95;
61804;PMS7003;47725;47.912;7.356;2022-08-19T10:16:13;11.88;9.14;
61804;PMS7003;47725;47.912;7.356;2022-08-19T10:20:12;11.88;9.14;
61804;PMS7003;47725;47.912;7.356;2022-08-19T10:24:12;11.88;9.14;
61804;PMS7003;47725;47.912;7.356;2022-08-19T10:28:12;14.76;11.07;
61804;PMS7003;47725;47.912;7.356;2022-08-19T10:32:12;14.76;11.07;
61804;PMS7003;47725;47.912;7.356;2022-08-19T10:36:17;12.89;11.05;
61804;PMS7003;47725;47.912;7.356;2022-08-19T10:40:12;12.89;11.05;
61804;PMS7003;47725;47.912;7.356;2022-08-19T10:44:12;12.89;11.05;
61804;PMS7003;47725;47.912;7.356;2022-08-19T10:48:12;8.33;8.33;
61804;PMS7003;47725;47.912;7.356;2022-08-19T10:52:11;8.33;8.33;
61804;PMS7003;47725;47.912;7.356;2022-08-19T10:56:12;13.90;12.97;
61804;PMS7003;47725;47.912;7.356;2022-08-19T11:00:12;13.90;12.97;
61804;PMS7003;47725;47.912;7.356;2022-08-19T11:04:12;13.90;12.97;
61804;PMS7003;47725;47.912;7.356;2022-08-19T11:08:11;10.38;8.50;
61804;PMS7003;47725;47.912;7.356;2022-08-19T11:12:11;10.38;8.50;
61804;PMS7003;47725;47.912;7.356;2022-08-19T11:16:13;13.32;13.32;
61804;PMS7003;47725;47.912;7.356;2022-08-19T11:20:12;13.32;13.32;
61804;PMS7003;47725;47.912;7.356;2022-08-19T11:24:21;13.32;13.32;
61804;PMS7003;47725;47.912;7.356;2022-08-19T11:28:12;9.55;7.64;
61804;PMS7003;47725;47.912;7.356;2022-08-19T11:32:11;9.55;7.64;
61804;PMS7003;47725;47.912;7.356;2022-08-19T11:36:12;12.41;12.41;
61804;PMS7003;47725;47.912;7.356;2022-08-19T11:40:11;12.41;12.41;
61804;PMS7003;47725;47.912;7.356;2022-08-19T11:44:20;12.41;12.41;
61804;PMS7003;47725;47.912;7.356;2022-08-19T11:48:14;11.49;10.53;
61804;PMS7003;47725;47.912;7.356;2022-08-19T11:52:11;11.49;10.53;
61804;PMS7003;47725;47.912;7.356;2022-08-19T11:56:12;9.59;9.59;
61804;PMS7003;47725;47.912;7.356;2022-08-19T12:00:12;9.59;9.59;
61804;PMS7003;47725;47.912;7.356;2022-08-19T12:04:12;9.59;9.59;
61804;PMS7003;47725;47.912;7.356;2022-08-19T12:08:12;17.18;13.36;
61804;PMS7003;47725;47.912;7.356;2022-08-19T12:12:11;17.18;13.36;
61804;PMS7003;47725;47.912;7.356;2022-08-19T12:16:14;14.25;12.35;
61804;PMS7003;47725;47.912;7.356;2022-08-19T12:20:12;14.25;12.35;
61804;PMS7003;47725;47.912;7.356;2022-08-19T12:24:11;14.25;12.35;
61804;PMS7003;47725;47.912;7.356;2022-08-19T12:28:11;9.53;9.53;
61804;PMS7003;47725;47.912;7.356;2022-08-19T12:32:15;9.53;9.53;
61804;PMS7003;47725;47.912;7.356;2022-08-19T12:36:12;13.31;9.50;
61804;PMS7003;47725;47.912;7.356;2022-08-19T12:40:12;13.31;9.50;
61804;PMS7003;47725;47.912;7.356;2022-08-19T12:44:15;13.31;9.50;
61804;PMS7003;47725;47.912;7.356;2022-08-19T12:48:11;10.46;10.46;
61804;PMS7003;47725;47.912;7.356;2022-08-19T12:52:11;10.46;10.46;
61804;PMS7003;47725;47.912;7.356;2022-08-19T12:56:12;16.12;10.43;
61804;PMS7003;47725;47.912;7.356;2022-08-19T13:00:16;16.12;10.43;
61804;PMS7003;47725;47.912;7.356;2022-08-19T13:04:11;16.12;10.43;
61804;PMS7003;47725;47.912;7.356;2022-08-19T13:08:11;16.98;12.26;
61804;PMS7003;47725;47.912;7.356;2022-08-19T13:12:11;16.98;12.26;
61804;PMS7003;47725;47.912;7.356;2022-08-19T13:20:11;13.17;11.29;
61804;PMS7003;47725;47.912;7.356;2022-08-19T13:24:11;13.17;11.29;
61804;PMS7003;47725;47.912;7.356;2022-08-19T13:28:14;9.44;9.44;
61804;PMS7003;47725;47.912;7.356;2022-08-19T13:32:11;9.44;9.44;
61804;PMS7003;47725;47.912;7.356;2022-08-19T13:36:11;10.38;8.49;
61804;PMS7003;47725;47.912;7.356;2022-08-19T13:40:13;10.38;8.49;
61804;PMS7003;47725;47.912;7.356;2022-08-19T13:44:11;10.38;8.49;
61804;PMS7003;47725;47.912;7.356;2022-08-19T13:48:11;11.33;9.44;
61804;PMS7003;47725;47.912;7.356;2022-08-19T13:52:14;11.33;9.44;
61804;PMS7003;47725;47.912;7.356;2022-08-19T13:56:13;13.21;9.44;
61804;PMS7003;47725;47.912;7.356;2022-08-19T14:00:14;13.21;9.44;
61804;PMS7003;47725;47.912;7.356;2022-08-19T14:04:11;13.21;9.44;
61804;PMS7003;47725;47.912;7.356;2022-08-19T14:08:11;16.05;13.21;
61804;PMS7003;47725;47.912;7.356;2022-08-19T14:12:17;16.05;13.21;
61804;PMS7003;47725;47.912;7.356;2022-08-19T14:16:12;17.92;13.20;
61804;PMS7003;47725;47.912;7.356;2022-08-19T14:20:12;17.92;13.20;
61804;PMS7003;47725;47.912;7.356;2022-08-19T14:24:11;17.92;13.20;
61804;PMS7003;47725;47.912;7.356;2022-08-19T14:28:11;15.07;10.36;
61804;PMS7003;47725;47.912;7.356;2022-08-19T14:32:12;15.07;10.36;
61804;PMS7003;47725;47.912;7.356;2022-08-19T14:36:11;15.98;13.16;
61804;PMS7003;47725;47.912;7.356;2022-08-19T14:40:16;15.98;13.16;
61804;PMS7003;47725;47.912;7.356;2022-08-19T14:44:11;15.98;13.16;
61804;PMS7003;47725;47.912;7.356;2022-08-19T14:48:14;12.24;12.24;
61804;PMS7003;47725;47.912;7.356;2022-08-19T14:52:11;12.24;12.24;
61804;PMS7003;47725;47.912;7.356;2022-08-19T14:56:13;11.27;11.27;
61804;PMS7003;47725;47.912;7.356;2022-08-19T15:00:12;11.27;11.27;
61804;PMS7003;47725;47.912;7.356;2022-08-19T15:04:11;11.27;11.27;
61804;PMS7003;47725;47.912;7.356;2022-08-19T15:08:11;15.01;11.26;
61804;PMS7003;47725;47.912;7.356;2022-08-19T15:12:11;15.01;11.26;
61804;PMS7003;47725;47.912;7.356;2022-08-19T15:16:11;16.87;16.87;
61804;PMS7003;47725;47.912;7.356;2022-08-19T15:20:18;16.87;16.87;
61804;PMS7003;47725;47.912;7.356;2022-08-19T15:24:11;16.87;16.87;
61804;PMS7003;47725;47.912;7.356;2022-08-19T15:28:11;15.08;14.14;
61804;PMS7003;47725;47.912;7.356;2022-08-19T15:32:11;15.08;14.14;
61804;PMS7003;47725;47.912;7.356;2022-08-19T15:36:11;15.09;10.37;
61804;PMS7003;47725;47.912;7.356;2022-08-19T15:40:11;15.09;10.37;
61804;PMS7003;47725;47.912;7.356;2022-08-19T15:44:12;15.09;10.37;
61804;PMS7003;47725;47.912;7.356;2022-08-19T15:48:11;12.24;10.36;
61804;PMS7003;47725;47.912;7.356;2022-08-19T15:52:11;12.24;10.36;
61804;PMS7003;47725;47.912;7.356;2022-08-19T15:56:14;10.34;8.46;
61804;PMS7003;47725;47.912;7.356;2022-08-19T16:00:11;10.34;8.46;
61804;PMS7003;47725;47.912;7.356;2022-08-19T16:04:11;10.34;8.46;
61804;PMS7003;47725;47.912;7.356;2022-08-19T16:08:11;13.20;8.49;
61804;PMS7003;47725;47.912;7.356;2022-08-19T16:12:11;13.20;8.49;
61804;PMS7003;47725;47.912;7.356;2022-08-19T16:16:11;11.34;9.45;
61804;PMS7003;47725;47.912;7.356;2022-08-19T16:20:11;11.34;9.45;
61804;PMS7003;47725;47.912;7.356;2022-08-19T16:24:13;11.34;9.45;
61804;PMS7003;47725;47.912;7.356;2022-08-19T16:28:11;13.24;11.35;
61804;PMS7003;47725;47.912;7.356;2022-08-19T16:32:11;13.24;11.35;
61804;PMS7003;47725;47.912;7.356;2022-08-19T16:36:11;16.10;11.37;
61804;PMS7003;47725;47.912;7.356;2022-08-19T16:40:11;16.10;11.37;
61804;PMS7003;47725;47.912;7.356;2022-08-19T16:44:13;16.10;11.37;
61804;PMS7003;47725;47.912;7.356;2022-08-19T16:48:11;9.47;7.58;
61804;PMS7003;47725;47.912;7.356;2022-08-19T16:52:11;9.47;7.58;
61804;PMS7003;47725;47.912;7.356;2022-08-19T16:56:11;13.29;11.40;
61804;PMS7003;47725;47.912;7.356;2022-08-19T17:00:12;13.29;11.40;
61804;PMS7003;47725;47.912;7.356;2022-08-19T17:04:11;13.29;11.40;
61804;PMS7003;47725;47.912;7.356;2022-08-19T17:08:11;11.48;9.57;
61804;PMS7003;47725;47.912;7.356;2022-08-19T17:12:11;11.48;9.57;
61804;PMS7003;47725;47.912;7.356;2022-08-19T17:16:11;8.65;8.65;
61804;PMS7003;47725;47.912;7.356;2022-08-19T17:20:11;8.65;8.65;
61804;PMS7003;47725;47.912;7.356;2022-08-19T17:24:11;8.65;8.65;
61804;PMS7003;47725;47.912;7.356;2022-08-19T17:32:11;8.64;8.64;
61804;PMS7003;47725;47.912;7.356;2022-08-19T17:36:11;14.39;7.68;
61804;PMS7003;47725;47.912;7.356;2022-08-19T17:40:11;14.39;7.68;
61804;PMS7003;47725;47.912;7.356;2022-08-19T17:44:11;14.39;7.68;
61804;PMS7003;47725;47.912;7.356;2022-08-19T17:48:11;14.36;11.49;
61804;PMS7003;47725;47.912;7.356;2022-08-19T17:52:11;14.36;11.49;
61804;PMS7003;47725;47.912;7.356;2022-08-19T17:56:11;8.62;6.70;
61804;PMS7003;47725;47.912;7.356;2022-08-19T18:00:12;8.62;6.70;
61804;PMS7003;47725;47.912;7.356;2022-08-19T18:04:11;8.62;6.70;
61804;PMS7003;47725;47.912;7.356;2022-08-19T18:08:11;7.65;7.65;
61804;PMS7003;47725;47.912;7.356;2022-08-19T18:12:11;7.65;7.65;
61804;PMS7003;47725;47.912;7.356;2022-08-19T18:16:11;14.34;10.52;
61804;PMS7003;47725;47.912;7.356;2022-08-19T18:20:12;14.34;10.52;
61804;PMS7003;47725;47.912;7.356;2022-08-19T18:24:11;14.34;10.52;
61804;PMS7003;47725;47.912;7.356;2022-08-19T18:28:11;7.63;6.67;
61804;PMS7003;47725;47.912;7.356;2022-08-19T18:32:11;7.63;6.67;
61804;PMS7003;47725;47.912;7.356;2022-08-19T18:36:11;10.46;8.56;
61804;PMS7003;47725;47.912;7.356;2022-08-19T18:40:13;10.46;8.56;
61804;PMS7003;47725;47.912;7.356;2022-08-19T18:44:11;10.46;8.56;
61804;PMS7003;47725;47.912;7.356;2022-08-19T18:48:11;11.37;9.47;
61804;PMS7003;47725;47.912;7.356;2022-08-19T18:52:11;11.37;9.47;
61804;PMS7003;47725;47.912;7.356;2022-08-19T18:56:12;11.33;11.33;
61804;PMS7003;47725;47.912;7.356;2022-08-19T19:00:11;11.33;11.33;
61804;PMS7003;47725;47.912;7.356;2022-08-19T19:04:11;11.33;11.33;
61804;PMS7003;47725;47.912;7.356;2022-08-19T19:08:11;7.53;7.53;
61804;PMS7003;47725;47.912;7.356;2022-08-19T19:12:11;7.53;7.53;
61804;PMS7003;47725;47.912;7.356;2022-08-19T19:16:11;10.32;7.50;
61804;PMS7003;47725;47.912;7.356;2022-08-19T19:20:11;10.32;7.50;
61804;PMS7003;47725;47.912;7.356;2022-08-19T19:24:12;10.32;7.50;
61804;PMS7003;47725;47.912;7.356;2022-08-19T19:28:11;7.48;7.48;
61804;PMS7003;47725;47.912;7.356;2022-08-19T19:32:24;7.48;7.48;
61804;PMS7003;47725;47.912;7.356;2022-08-19T19:36:11;7.46;7.46;
61804;PMS7003;47725;47.912;7.356;2022-08-19T19:40:11;7.46;7.46;
61804;PMS7003;47725;47.912;7.356;2022-08-19T19:44:11;7.46;7.46;
61804;PMS7003;47725;47.912;7.356;2022-08-19T19:48:11;9.34;7.47;
61804;PMS7003;47725;47.912;7.356;2022-08-19T19:52:11;9.34;7.47;
61804;PMS7003;47725;47.912;7.356;2022-08-19T19:56:11;15.87;10.27;
61804;PMS7003;47725;47.912;7.356;2022-08-19T20:00:11;15.87;10.27;
61804;PMS7003;47725;47.912;7.356;2022-08-19T20:04:11;15.87;10.27;
61804;PMS7003;47725;47.912;7.356;2022-08-19T20:08:11;9.29;7.43;
61804;PMS7003;47725;47.912;7.356;2022-08-19T20:12:11;9.29;7.43;
61804;PMS7003;47725;47.912;7.356;2022-08-19T20:16:11;12.97;10.19;
61804;PMS7003;47725;47.912;7.356;2022-08-19T20:20:12;12.97;10.19;
61804;PMS7003;47725;47.912;7.356;2022-08-19T20:24:12;12.97;10.19;
61804;PMS7003;47725;47.912;7.356;2022-08-19T20:28:11;12.98;12.06;
61804;PMS7003;47725;47.912;7.356;2022-08-19T20:32:11;12.98;12.06;
61804;PMS7003;47725;47.912;7.356;2022-08-19T20:36:11;13.84;9.23;
61804;PMS7003;47725;47.912;7.356;2022-08-19T20:40:11;13.84;9.23;
61804;PMS7003;47725;47.912;7.356;2022-08-19T20:44:11;13.84;9.23;
61804;PMS7003;47725;47.912;7.356;2022-08-19T20:48:11;9.22;9.22;
61804;PMS7003;47725;47.912;7.356;2022-08-19T20:52:11;9.22;9.22;
61804;PMS7003;47725;47.912;7.356;2022-08-19T20:56:11;11.96;8.28;
61804;PMS7003;47725;47.912;7.356;2022-08-19T21:00:11;11.96;8.28;
61804;PMS7003;47725;47.912;7.356;2022-08-19T21:04:11;11.96;8.28;
61804;PMS7003;47725;47.912;7.356;2022-08-19T21:08:11;11.94;10.10;
61804;PMS7003;47725;47.912;7.356;2022-08-19T21:12:11;11.94;10.10;
61804;PMS7003;47725;47.912;7.356;2022-08-19T21:16:11;11.93;7.34;
61804;PMS7003;47725;47.912;7.356;2022-08-19T21:20:11;11.93;7.34;
61804;PMS7003;47725;47.912;7.356;2022-08-19T21:24:11;11.93;7.34;
61804;PMS7003;47725;47.912;7.356;2022-08-19T21:28:11;5.50;4.59;
61804;PMS7003;47725;47.912;7.356;2022-08-19T21:32:11;5.50;4.59;
61804;PMS7003;47725;47.912;7.356;2022-08-19T21:36:11;6.43;4.59;
61804;PMS7003;47725;47.912;7.356;2022-08-19T21:40:11;6.43;4.59;
61804;PMS7003;47725;47.912;7.356;2022-08-19T21:44:11;6.43;4.59;
61804;PMS7003;47725;47.912;7.356;2022-08-19T21:48:11;6.43;5.51;
61804;PMS7003;47725;47.912;7.356;2022-08-19T21:52:11;6.43;5.51;
61804;PMS7003;47725;47.912;7.356;2022-08-19T21:56:11;2.75;2.75;
61804;PMS7003;47725;47.912;7.356;2022-08-19T22:00:13;2.75;2.75;
61804;PMS7003;47725;47.912;7.356;2022-08-19T22:04:11;2.75;2.75;
61804;PMS7003;47725;47.912;7.356;2022-08-19T22:08:11;2.76;1.84;
61804;PMS7003;47725;47.912;7.356;2022-08-19T22:12:18;2.76;1.84;
61804;PMS7003;47725;47.912;7.356;2022-08-19T22:16:11;1.84;1.84;
61804;PMS7003;47725;47.912;7.356;2022-08-19T22:20:12;1.84;1.84;
61804;PMS7003;47725;47.912;7.356;2022-08-19T22:24:11;1.84;1.84;
61804;PMS7003;47725;47.912;7.356;2022-08-19T22:28:12;2.76;1.84;
61804;PMS7003;47725;47.912;7.356;2022-08-19T22:32:11;2.76;1.84;
61804;PMS7003;47725;47.912;7.356;2022-08-19T22:36:11;1.84;1.84;
61804;PMS7003;47725;47.912;7.356;2022-08-19T22:40:11;1.84;1.84;
61804;PMS7003;47725;47.912;7.356;2022-08-19T22:44:11;1.84;1.84;
61804;PMS7003;47725;47.912;7.356;2022-08-19T22:48:13;2.77;0.92;
61804;PMS7003;47725;47.912;7.356;2022-08-19T22:52:11;2.77;0.92;
61804;PMS7003;47725;47.912;7.356;2022-08-19T22:56:11;1.85;0.00;
61804;PMS7003;47725;47.912;7.356;2022-08-19T23:00:11;1.85;0.00;
61804;PMS7003;47725;47.912;7.356;2022-08-19T23:04:11;1.85;0.00;
61804;PMS7003;47725;47.912;7.356;2022-08-19T23:08:11;0.92;0.92;
61804;PMS7003;47725;47.912;7.356;2022-08-19T23:12:11;0.92;0.92;
61804;PMS7003;47725;47.912;7.356;2022-08-19T23:16:11;3.68;0.92;
61804;PMS7003;47725;47.912;7.356;2022-08-19T23:20:12;3.68;0.92;
61804;PMS7003;47725;47.912;7.356;2022-08-19T23:24:11;3.68;0.92;
61804;PMS7003;47725;47.912;7.356;2022-08-19T23:28:11;2.76;1.84;
61804;PMS7003;47725;47.912;7.356;2022-08-19T23:32:11;2.76;1.84;
61804;PMS7003;47725;47.912;7.356;2022-08-19T23:36:12;3.68;3.68;
61804;PMS7003;47725;47.912;7.356;2022-08-19T23:40:11;3.68;3.68;
61804;PMS7003;47725;47.912;7.356;2022-08-19T23:44:11;3.68;3.68;
61804;PMS7003;47725;47.912;7.356;2022-08-19T23:48:11;4.59;3.67;
61804;PMS7003;47725;47.912;7.356;2022-08-19T23:52:11;4.59;3.67;
61804;PMS7003;47725;47.912;7.356;2022-08-19T23:56:11;3.67;2.75;
